Time;durP1;ratioP1;P1;durP2;ratioP2;P2;SDS_P1;SDS_P2;PMS_P1;PMS_P2;Temp;Humidity;BMP_temperature;BMP_pressure;BME280_temperature;BME280_humidity;BME280_pressure;Samples;Min_cycle;Max_cycle;Signal;HPM_P1;HPM_P2
2022/01/25 00:27:12;;;;;;;76.57;48.88;;;1.70;99.90;;;;;;5134062;27;20324;-64
2022/01/25 00:32:12;;;;;;;74.50;47.08;;;1.70;99.90;;;;;;5134802;27;20435;-64
2022/01/25 00:34:38;;;;;;;78.82;48.58;;;1.70;99.90;;;;;;5133885;27;20111;-64
2022/01/25 00:37:04;;;;;;;76.15;47.78;;;1.70;99.90;;;;;;5134597;27;20027;-64
2022/01/25 00:39:30;;;;;;;81.55;49.50;;;1.70;99.90;;;;;;5134756;27;20027;-63
2022/01/25 00:41:56;;;;;;;79.80;48.08;;;1.70;99.90;;;;;;5133610;27;20060;-64
2022/01/25 00:44:22;;;;;;;77.93;47.40;;;1.70;99.90;;;;;;5134392;27;20023;-64
2022/01/25 00:46:48;;;;;;;77.32;48.15;;;1.70;99.90;;;;;;5133798;27;20027;-65
2022/01/25 00:49:25;;;;;;;76.45;47.92;;;1.60;99.90;;;;;;5134300;27;20015;-64
2022/01/25 00:54:27;;;;;;;77.72;49.65;;;1.70;99.90;;;;;;5133899;27;20448;-65
2022/01/25 00:56:54;;;;;;;77.53;46.92;;;1.70;99.90;;;;;;5133537;27;20046;-63
2022/01/25 00:59:23;;;;;;;71.72;46.28;;;1.70;99.90;;;;;;5134126;27;20019;-63
2022/01/25 01:01:52;;;;;;;73.18;46.38;;;1.70;99.90;;;;;;5133502;27;20452;-63
2022/01/25 01:04:19;;;;;;;72.50;47.88;;;1.70;99.90;;;;;;5134073;27;20031;-64
2022/01/25 01:06:46;;;;;;;69.72;47.10;;;1.70;99.90;;;;;;5133064;27;20035;-64
2022/01/25 01:09:13;;;;;;;74.13;46.95;;;1.70;99.90;;;;;;5134023;27;20035;-63
2022/01/25 01:11:54;;;;;;;76.30;49.13;;;1.80;99.90;;;;;;5133335;27;20094;-63
2022/01/25 01:31:15;;;;;;;81.15;48.88;;;1.80;99.90;;;;;;5133404;27;20035;-64
2022/01/25 01:43:52;;;;;;;78.63;48.63;;;1.80;99.90;;;;;;5132819;27;20023;-64
2022/01/25 01:51:27;;;;;;;77.38;48.60;;;1.70;99.90;;;;;;5133162;27;20027;-65
2022/01/25 01:53:54;;;;;;;81.90;49.25;;;1.70;99.90;;;;;;5132549;27;20028;-64
2022/01/25 01:56:20;;;;;;;80.60;48.85;;;1.70;99.90;;;;;;5132702;27;20047;-63
2022/01/25 01:58:46;;;;;;;79.72;48.78;;;1.70;99.90;;;;;;5132640;27;20019;-63
2022/01/25 02:01:16;;;;;;;81.05;49.55;;;1.70;99.90;;;;;;5133198;27;20029;-63
2022/01/25 02:03:42;;;;;;;75.10;47.70;;;1.70;99.90;;;;;;5130411;27;20531;-64
2022/01/25 02:06:07;;;;;;;78.63;47.85;;;1.70;99.90;;;;;;5113879;28;20027;-64
2022/01/25 02:08:34;;;;;;;80.15;48.97;;;1.70;99.90;;;;;;5093978;28;20023;-64
2022/01/25 02:11:00;;;;;;;80.13;49.40;;;1.60;99.90;;;;;;5111916;28;20028;-64
2022/01/25 02:13:26;;;;;;;73.25;46.13;;;1.60;99.90;;;;;;5112127;28;20023;-63
2022/01/25 02:15:55;;;;;;;76.70;48.42;;;1.60;99.90;;;;;;5111384;28;20025;-64
2022/01/25 02:23:49;;;;;;;75.57;47.15;;;1.60;99.90;;;;;;5111800;28;20059;-65
2022/01/25 02:26:15;;;;;;;76.43;48.75;;;1.60;99.90;;;;;;5117083;28;20484;-64
2022/01/25 02:28:43;;;;;;;78.05;49.30;;;1.60;99.90;;;;;;5116585;28;20027;-64
2022/01/25 02:31:12;;;;;;;79.38;48.20;;;1.60;99.90;;;;;;5116551;28;20020;-65
2022/01/25 02:33:38;;;;;;;74.07;47.42;;;1.60;99.90;;;;;;5116479;28;20020;-64
2022/01/25 02:36:06;;;;;;;83.40;49.33;;;1.60;99.90;;;;;;5115507;28;20164;-65
2022/01/25 02:38:33;;;;;;;79.93;47.83;;;1.60;99.90;;;;;;5116300;28;20051;-64
2022/01/25 02:41:00;;;;;;;78.18;47.95;;;1.60;99.90;;;;;;5115773;28;20111;-65
2022/01/25 02:43:27;;;;;;;78.57;47.70;;;1.60;99.90;;;;;;5116415;28;20031;-64
2022/01/25 02:48:56;;;;;;;74.55;46.70;;;1.60;99.90;;;;;;5116184;28;20028;-63
2022/01/25 02:51:29;;;;;;;73.57;47.67;;;1.60;99.90;;;;;;5097571;28;20031;-64
2022/01/25 02:53:56;;;;;;;73.22;47.95;;;1.60;99.90;;;;;;5115586;28;20038;-64
2022/01/25 02:56:23;;;;;;;77.00;47.53;;;1.60;99.90;;;;;;5115608;28;20044;-64
2022/01/25 02:58:49;;;;;;;74.90;47.75;;;1.60;99.90;;;;;;5128331;27;20408;-64
2022/01/25 03:01:15;;;;;;;74.88;48.65;;;1.70;99.90;;;;;;5136556;27;20038;-64
2022/01/25 03:03:41;;;;;;;78.15;48.20;;;1.70;99.90;;;;;;5136424;27;20352;-64
2022/01/25 03:06:07;;;;;;;75.45;46.80;;;1.70;99.90;;;;;;5135733;27;20031;-64
2022/01/25 03:08:34;;;;;;;79.30;47.65;;;1.70;99.90;;;;;;5117963;27;20027;-64
2022/01/25 03:11:00;;;;;;;75.53;46.92;;;1.70;99.90;;;;;;5135612;27;20041;-64
2022/01/25 03:13:33;;;;;;;76.55;47.88;;;1.70;99.90;;;;;;5136018;27;20500;-63
2022/01/25 03:16:03;;;;;;;74.88;47.38;;;1.70;99.90;;;;;;5135525;27;20051;-63
2022/01/25 03:21:02;;;;;;;76.95;48.58;;;1.70;99.90;;;;;;5135559;27;20106;-63
2022/01/25 03:23:29;;;;;;;73.72;47.15;;;1.70;99.90;;;;;;5136020;27;20027;-64
2022/01/25 03:25:55;;;;;;;70.63;45.55;;;1.70;99.90;;;;;;5135468;27;20072;-64
2022/01/25 03:28:21;;;;;;;73.65;47.75;;;1.70;99.90;;;;;;5117689;27;20024;-64
2022/01/25 03:30:48;;;;;;;71.90;46.53;;;1.70;99.90;;;;;;5135997;27;20079;-64
2022/01/25 03:33:14;;;;;;;71.55;46.53;;;1.80;99.90;;;;;;5135891;27;20061;-64
2022/01/25 03:35:41;;;;;;;72.15;47.05;;;1.80;99.90;;;;;;5134823;27;20027;-64
2022/01/25 03:38:07;;;;;;;73.38;48.25;;;1.80;99.90;;;;;;5135055;27;20031;-64
2022/01/25 03:40:33;;;;;;;76.10;47.13;;;1.80;99.90;;;;;;5135809;27;20034;-64
2022/01/25 03:45:55;;;;;;;74.82;48.03;;;1.80;99.90;;;;;;5135817;27;20097;-63
2022/01/25 03:50:49;;;;;;;71.57;46.28;;;1.80;99.90;;;;;;5135597;27;20024;-64
2022/01/25 03:53:16;;;;;;;69.10;45.63;;;1.80;99.90;;;;;;5135543;27;20027;-63
2022/01/25 03:55:42;;;;;;;70.82;45.80;;;1.80;99.90;;;;;;5135328;27;20491;-64
2022/01/25 03:58:08;;;;;;;75.72;47.53;;;1.80;99.90;;;;;;5134499;27;20096;-64
2022/01/25 04:00:36;;;;;;;69.70;46.95;;;1.80;99.90;;;;;;5135340;27;20513;-64
2022/01/25 04:03:11;;;;;;;73.20;46.78;;;1.80;99.90;;;;;;5134759;27;20031;-64
2022/01/25 04:08:10;;;;;;;76.13;47.60;;;1.80;99.90;;;;;;5114125;28;20034;-64
2022/01/25 04:10:36;;;;;;;69.63;46.15;;;1.80;99.90;;;;;;5115094;28;20073;-64
2022/01/25 04:13:21;;;;;;;73.95;45.85;;;1.80;99.90;;;;;;5113897;28;20078;-64
2022/01/25 04:15:48;;;;;;;73.78;46.58;;;1.80;99.90;;;;;;5114624;28;20106;-63
2022/01/25 04:20:58;;;;;;;77.10;48.03;;;1.80;99.90;;;;;;5114574;28;20024;-63
2022/01/25 04:26:08;;;;;;;72.95;47.35;;;1.90;99.90;;;;;;5113615;28;20054;-63
2022/01/25 04:28:33;;;;;;;73.78;47.00;;;1.90;99.90;;;;;;5114085;28;20503;-63
2022/01/25 04:30:59;;;;;;;76.80;45.47;;;1.90;99.90;;;;;;5113908;28;20081;-63
2022/01/25 04:33:37;;;;;;;69.97;45.10;;;1.80;99.90;;;;;;5114253;28;20381;-63
2022/01/25 04:36:28;;;;;;;69.35;45.10;;;1.80;99.90;;;;;;5113039;28;20081;-64
2022/01/25 04:49:58;;;;;;;67.45;43.30;;;1.90;99.90;;;;;;5113058;28;20078;-64
2022/01/25 04:52:29;;;;;;;68.63;44.92;;;1.90;99.90;;;;;;5113885;28;20039;-64
2022/01/25 05:04:58;;;;;;;74.55;46.10;;;1.90;99.90;;;;;;5133823;27;20069;-64
2022/01/25 05:10:07;;;;;;;71.10;45.88;;;1.90;99.90;;;;;;5133475;27;20035;-64
2022/01/25 05:15:37;;;;;;;70.10;42.08;;;2.00;99.90;;;;;;5133341;27;20482;-64
2022/01/25 05:18:15;;;;;;;67.60;39.72;;;2.00;99.90;;;;;;5133211;27;20122;-63
2022/01/25 05:23:25;;;;;;;66.57;37.33;;;2.10;99.90;;;;;;5133555;27;20461;-64
2022/01/25 05:25:50;;;;;;;66.72;40.72;;;2.10;99.90;;;;;;5133728;27;20020;-64
2022/01/25 05:28:35;;;;;;;68.25;39.10;;;2.10;99.90;;;;;;5133141;27;20482;-64
2022/01/25 05:31:00;;;;;;;70.68;39.40;;;2.10;99.90;;;;;;5133089;27;20054;-64
2022/01/25 05:33:26;;;;;;;69.90;41.15;;;2.20;99.90;;;;;;5133530;27;20065;-64
2022/01/25 05:35:52;;;;;;;65.25;39.05;;;2.20;99.90;;;;;;5133541;27;20031;-64
2022/01/25 05:38:17;;;;;;;66.70;39.85;;;2.20;99.90;;;;;;5132896;27;20027;-62
2022/01/25 05:40:49;;;;;;;69.68;40.22;;;2.20;99.90;;;;;;5125754;27;20046;-64
2022/01/25 05:48:12;;;;;;;67.28;38.63;;;2.20;99.90;;;;;;5131109;27;20031;-65
2022/01/25 05:50:38;;;;;;;66.40;39.38;;;2.30;99.90;;;;;;5132850;27;20428;-65
2022/01/25 05:53:03;;;;;;;70.30;39.38;;;2.30;99.90;;;;;;5132438;27;20102;-64
2022/01/25 05:55:29;;;;;;;69.78;40.47;;;2.30;99.90;;;;;;5132976;27;20392;-64
2022/01/25 05:57:55;;;;;;;69.40;39.17;;;2.30;99.90;;;;;;5131762;27;20031;-64
2022/01/25 06:00:21;;;;;;;65.25;38.35;;;2.30;99.90;;;;;;5113492;27;20027;-63
2022/01/25 06:02:53;;;;;;;67.00;38.90;;;2.30;99.90;;;;;;5132626;27;20038;-64
2022/01/25 06:05:19;;;;;;;66.65;38.72;;;2.30;99.90;;;;;;5131858;27;20368;-64
2022/01/25 06:07:44;;;;;;;69.32;39.63;;;2.30;99.90;;;;;;5132890;27;20041;-64
2022/01/25 06:10:10;;;;;;;67.55;37.33;;;2.40;99.90;;;;;;5128877;27;20065;-64
2022/01/25 06:12:36;;;;;;;68.75;38.95;;;2.40;99.90;;;;;;5132835;27;20410;-65
2022/01/25 06:15:02;;;;;;;68.97;40.80;;;2.40;99.90;;;;;;5113291;28;20153;-64
2022/01/25 06:17:46;;;;;;;72.60;41.75;;;2.40;99.90;;;;;;5094152;28;20437;-64
2022/01/25 06:20:12;;;;;;;69.85;43.00;;;2.40;99.90;;;;;;5111752;28;20119;-64
2022/01/25 06:22:38;;;;;;;67.10;42.13;;;2.40;99.90;;;;;;5112301;28;20080;-64
2022/01/25 06:25:05;;;;;;;67.28;43.63;;;2.40;99.90;;;;;;5111130;28;20028;-64
2022/01/25 06:27:30;;;;;;;66.85;43.90;;;2.40;99.90;;;;;;5112075;28;20028;-64
2022/01/25 06:29:57;;;;;;;64.32;42.00;;;2.30;99.90;;;;;;5111908;28;20031;-64
2022/01/25 06:32:23;;;;;;;64.05;42.42;;;2.30;99.90;;;;;;5112063;28;20106;-64
2022/01/25 06:34:48;;;;;;;69.90;43.25;;;2.30;99.90;;;;;;5112211;28;20149;-64
2022/01/25 06:37:15;;;;;;;70.05;43.38;;;2.30;99.90;;;;;;5111283;28;20197;-64
2022/01/25 06:39:42;;;;;;;69.22;43.58;;;2.20;99.90;;;;;;5112042;28;20020;-64
2022/01/25 06:42:08;;;;;;;70.20;44.20;;;2.20;99.90;;;;;;5110477;28;20024;-64
2022/01/25 06:44:35;;;;;;;68.28;43.25;;;2.20;99.90;;;;;;5092952;28;20020;-63
2022/01/25 06:47:02;;;;;;;63.90;41.85;;;2.30;99.90;;;;;;5110768;28;20096;-64
2022/01/25 06:49:28;;;;;;;63.72;42.38;;;2.20;99.90;;;;;;5111591;28;20472;-66
2022/01/25 06:51:53;;;;;;;62.90;41.80;;;2.20;99.90;;;;;;5111464;28;20111;-65
2022/01/25 06:54:19;;;;;;;62.20;41.60;;;2.20;99.90;;;;;;5110485;28;20440;-64
2022/01/25 06:56:45;;;;;;;64.18;42.38;;;2.30;99.90;;;;;;5111618;28;20040;-65
2022/01/25 06:59:11;;;;;;;62.47;42.08;;;2.30;99.90;;;;;;5111211;28;20051;-64
2022/01/25 07:01:36;;;;;;;64.63;42.58;;;2.30;99.90;;;;;;5112030;28;20116;-64
2022/01/25 07:04:02;;;;;;;60.45;41.33;;;2.30;99.90;;;;;;5092989;28;20026;-64
2022/01/25 07:06:28;;;;;;;66.93;42.60;;;2.30;99.90;;;;;;5111639;28;20085;-64
2022/01/25 07:08:54;;;;;;;65.95;42.10;;;2.30;99.90;;;;;;5130690;28;20030;-65
2022/01/25 07:11:19;;;;;;;63.22;40.58;;;2.30;99.90;;;;;;5134311;27;20394;-64
2022/01/25 07:13:47;;;;;;;64.10;39.25;;;2.40;99.90;;;;;;5136228;27;20027;-65
2022/01/25 07:16:13;;;;;;;61.78;38.58;;;2.40;99.90;;;;;;5117106;27;20050;-66
2022/01/25 07:18:39;;;;;;;63.15;38.80;;;2.40;99.90;;;;;;5136027;27;20022;-65
2022/01/25 07:21:05;;;;;;;62.75;37.50;;;2.40;99.90;;;;;;5135812;27;20039;-66
2022/01/25 07:23:30;;;;;;;58.97;36.30;;;2.40;99.90;;;;;;5135814;27;20417;-66
2022/01/25 07:25:56;;;;;;;59.60;34.92;;;2.50;99.90;;;;;;5136061;27;20059;-65
2022/01/25 07:28:22;;;;;;;51.92;32.65;;;2.50;99.90;;;;;;5116950;27;20027;-66
2022/01/25 07:30:47;;;;;;;51.05;30.33;;;2.50;99.90;;;;;;5135628;27;20026;-65
2022/01/25 07:33:13;;;;;;;52.03;30.45;;;2.60;99.90;;;;;;5135312;27;20023;-66
2022/01/25 07:35:40;;;;;;;48.08;29.75;;;2.60;99.90;;;;;;5117405;27;20126;-65
2022/01/25 07:38:06;;;;;;;48.63;30.08;;;2.60;99.90;;;;;;5116786;27;20387;-68
2022/01/25 07:40:34;;;;;;;48.60;29.30;;;2.60;99.90;;;;;;5117451;27;20073;-66
2022/01/25 07:43:00;;;;;;;47.25;28.13;;;2.70;99.90;;;;;;5135657;27;20038;-65
2022/01/25 07:45:26;;;;;;;54.63;30.83;;;2.70;99.90;;;;;;5134795;27;20032;-66
2022/01/25 07:47:52;;;;;;;53.20;31.95;;;2.70;99.90;;;;;;5135604;27;20114;-65
2022/01/25 07:50:18;;;;;;;48.08;28.75;;;2.70;99.90;;;;;;5134946;27;20456;-65
2022/01/25 07:52:43;;;;;;;52.58;30.60;;;2.80;99.90;;;;;;5135770;27;20015;-67
2022/01/25 07:55:10;;;;;;;54.80;30.38;;;2.80;99.90;;;;;;5134863;27;20470;-65
2022/01/25 07:57:36;;;;;;;49.85;28.98;;;2.80;99.90;;;;;;5135384;27;20194;-65
2022/01/25 08:00:03;;;;;;;45.40;27.75;;;2.80;99.90;;;;;;5135476;27;20072;-65
2022/01/25 08:02:29;;;;;;;51.53;27.98;;;2.80;99.90;;;;;;5135065;27;20605;-65
2022/01/25 08:04:54;;;;;;;48.30;27.88;;;2.80;99.90;;;;;;5116946;27;20059;-65
2022/01/25 08:07:20;;;;;;;45.30;27.40;;;2.80;99.90;;;;;;5134273;27;20030;-65
2022/01/25 08:09:46;;;;;;;43.72;27.00;;;2.80;99.90;;;;;;5134992;27;20024;-65
2022/01/25 08:12:12;;;;;;;43.15;26.45;;;2.80;99.90;;;;;;5131600;27;20168;-65
2022/01/25 08:14:43;;;;;;;38.53;24.33;;;2.80;99.90;;;;;;5133587;27;20039;-65
2022/01/25 08:17:08;;;;;;;37.65;23.77;;;2.80;99.90;;;;;;5134551;27;20094;-67
2022/01/25 08:19:34;;;;;;;39.83;24.30;;;2.80;99.90;;;;;;5135228;27;20035;-65
2022/01/25 08:22:00;;;;;;;38.33;23.90;;;2.80;99.90;;;;;;5134276;27;20432;-65
2022/01/25 08:24:25;;;;;;;40.00;24.52;;;2.80;99.90;;;;;;5115966;27;20034;-65
2022/01/25 08:26:51;;;;;;;35.05;23.02;;;2.80;99.90;;;;;;5134958;27;20027;-65
2022/01/25 08:29:18;;;;;;;37.72;22.40;;;2.80;99.90;;;;;;5134552;27;20033;-65
2022/01/25 08:31:44;;;;;;;35.70;21.65;;;2.80;99.90;;;;;;5134613;27;20034;-65
2022/01/25 08:34:13;;;;;;;32.20;21.83;;;2.80;99.90;;;;;;5134157;27;20406;-65
2022/01/25 08:36:39;;;;;;;35.05;22.92;;;2.80;99.90;;;;;;5134621;27;20400;-66
2022/01/25 08:39:06;;;;;;;32.35;20.92;;;2.80;99.90;;;;;;5134634;27;20084;-66
2022/01/25 08:41:32;;;;;;;33.30;21.38;;;2.80;99.90;;;;;;5134696;27;20023;-66
2022/01/25 08:43:58;;;;;;;35.78;22.48;;;2.80;99.90;;;;;;5134650;27;20050;-65
2022/01/25 08:46:24;;;;;;;33.72;21.20;;;2.80;99.90;;;;;;5133506;27;20031;-68
2022/01/25 08:48:50;;;;;;;32.70;20.58;;;2.90;99.90;;;;;;5134270;27;20405;-66
2022/01/25 08:51:16;;;;;;;29.38;19.25;;;2.90;99.90;;;;;;5133613;27;20026;-67
2022/01/25 08:53:42;;;;;;;28.38;18.30;;;2.90;99.90;;;;;;5134257;27;20023;-66
2022/01/25 08:56:08;;;;;;;28.15;18.50;;;2.90;99.90;;;;;;5133595;27;20337;-68
2022/01/25 08:58:35;;;;;;;26.77;17.42;;;2.90;99.90;;;;;;5133874;27;20030;-67
2022/01/25 09:01:01;;;;;;;25.52;16.77;;;3.00;99.90;;;;;;5134146;27;20062;-66
2022/01/25 09:03:26;;;;;;;27.90;17.30;;;3.00;99.90;;;;;;5133035;27;20023;-65
2022/01/25 09:05:53;;;;;;;23.75;16.40;;;3.10;99.90;;;;;;5134098;27;20026;-65
2022/01/25 09:08:21;;;;;;;26.88;17.17;;;3.10;99.90;;;;;;5133664;27;20510;-65
2022/01/25 09:10:57;;;;;;;24.45;16.38;;;3.20;99.90;;;;;;5133951;27;20019;-66
2022/01/25 09:13:23;;;;;;;22.83;15.77;;;3.10;99.90;;;;;;5133332;27;20023;-65
2022/01/25 09:15:49;;;;;;;25.05;15.15;;;3.20;99.90;;;;;;5133526;27;20023;-63
2022/01/25 09:18:14;;;;;;;25.25;17.10;;;3.20;99.90;;;;;;5132706;27;20079;-64
2022/01/25 09:23:25;;;;;;;21.75;15.57;;;3.20;99.90;;;;;;5132822;27;20080;-66
2022/01/25 09:25:52;;;;;;;22.08;15.57;;;3.20;99.90;;;;;;5133550;27;20383;-67
2022/01/25 09:28:17;;;;;;;23.80;15.45;;;3.20;99.90;;;;;;5133106;27;20066;-65
2022/01/25 09:30:44;;;;;;;29.75;17.13;;;3.10;99.90;;;;;;5133346;27;20051;-64
2022/01/25 09:33:11;;;;;;;19.63;14.57;;;3.20;99.90;;;;;;5133298;27;20098;-65
2022/01/25 09:35:37;;;;;;;22.08;14.85;;;3.20;99.90;;;;;;5132834;27;20042;-65
2022/01/25 09:38:03;;;;;;;21.13;15.60;;;3.20;99.90;;;;;;5133383;27;20471;-64
2022/01/25 09:40:29;;;;;;;22.42;14.98;;;3.20;99.90;;;;;;5132856;27;20027;-65
2022/01/25 09:42:57;;;;;;;21.83;15.25;;;3.20;99.90;;;;;;5133419;27;20476;-66
2022/01/25 09:45:23;;;;;;;22.70;15.20;;;3.20;99.90;;;;;;5132799;27;20019;-65
2022/01/25 09:47:53;;;;;;;21.95;14.63;;;3.10;99.90;;;;;;5133414;27;20028;-64
2022/01/25 09:50:19;;;;;;;21.13;14.13;;;3.20;99.90;;;;;;5132718;27;20023;-64
2022/01/25 09:52:45;;;;;;;21.73;14.38;;;3.20;99.90;;;;;;5132956;27;20478;-64
2022/01/25 09:55:14;;;;;;;20.33;13.98;;;3.10;99.90;;;;;;5132909;27;20054;-64
2022/01/25 09:57:40;;;;;;;21.65;14.60;;;3.20;99.90;;;;;;5133124;27;20127;-64
2022/01/25 10:00:08;;;;;;;20.98;14.10;;;3.20;99.90;;;;;;5133089;27;20097;-64
2022/01/25 10:02:49;;;;;;;23.50;14.45;;;3.10;99.90;;;;;;5132604;27;20102;-64
2022/01/25 10:05:15;;;;;;;23.42;13.57;;;3.10;99.90;;;;;;5132491;27;20417;-67
2022/01/25 10:07:41;;;;;;;20.50;13.77;;;3.10;99.90;;;;;;5130999;27;20035;-65
2022/01/25 10:10:07;;;;;;;18.58;12.95;;;3.10;99.90;;;;;;5094938;28;20365;-65
2022/01/25 10:12:33;;;;;;;21.42;13.25;;;3.10;99.90;;;;;;5111767;28;20358;-65
2022/01/25 10:15:01;;;;;;;21.67;13.57;;;3.10;99.90;;;;;;5112088;28;20384;-65
2022/01/25 10:17:35;;;;;;;18.80;13.68;;;3.10;99.90;;;;;;5111602;28;20491;-65
2022/01/25 10:20:01;;;;;;;22.77;13.60;;;3.10;99.90;;;;;;5112837;28;20168;-65
2022/01/25 10:22:27;;;;;;;20.40;14.23;;;3.10;99.90;;;;;;5111760;28;20452;-65
2022/01/25 10:24:53;;;;;;;21.85;14.57;;;3.10;99.90;;;;;;5112568;28;20027;-65
2022/01/25 10:30:08;;;;;;;22.08;14.27;;;3.20;99.90;;;;;;5112340;28;20038;-64
2022/01/25 10:32:33;;;;;;;20.98;14.45;;;3.20;99.90;;;;;;5111384;28;20422;-64
2022/01/25 10:34:59;;;;;;;20.60;13.80;;;3.20;99.90;;;;;;5112162;28;20120;-66
2022/01/25 10:37:26;;;;;;;23.50;13.70;;;3.20;99.90;;;;;;5111321;28;20456;-66
2022/01/25 10:39:53;;;;;;;20.52;13.20;;;3.20;99.90;;;;;;5112167;28;20465;-65
2022/01/25 10:42:24;;;;;;;19.80;13.73;;;3.20;99.90;;;;;;5111625;28;20103;-65
2022/01/25 10:45:04;;;;;;;17.55;13.05;;;3.20;99.90;;;;;;5112526;28;20145;-65
2022/01/25 10:47:49;;;;;;;19.50;13.55;;;3.20;99.90;;;;;;5115433;28;20487;-64
2022/01/25 10:50:24;;;;;;;20.75;13.70;;;3.20;99.90;;;;;;5115951;28;20027;-64
2022/01/25 10:53:15;;;;;;;21.20;13.55;;;3.20;99.90;;;;;;5115952;28;20042;-65
2022/01/25 10:55:46;;;;;;;20.85;13.50;;;3.20;99.90;;;;;;5115287;28;20052;-65
2022/01/25 10:58:13;;;;;;;21.95;13.48;;;3.20;99.90;;;;;;5115703;28;20071;-65
2022/01/25 11:00:47;;;;;;;21.58;13.07;;;3.20;99.90;;;;;;5115495;28;20039;-64
2022/01/25 11:03:29;;;;;;;21.35;13.07;;;3.20;99.90;;;;;;5115726;28;20364;-64
2022/01/25 11:05:55;;;;;;;22.80;14.15;;;3.20;99.90;;;;;;5115640;28;20205;-65
2022/01/25 11:11:10;;;;;;;18.75;13.13;;;3.10;99.90;;;;;;5118959;27;20026;-65
2022/01/25 11:13:38;;;;;;;19.63;12.55;;;3.10;99.90;;;;;;5135358;27;20034;-66
2022/01/25 11:16:12;;;;;;;20.27;13.68;;;3.20;99.90;;;;;;5135880;27;20035;-66
2022/01/25 11:18:39;;;;;;;19.13;13.15;;;3.20;99.90;;;;;;5135016;27;20474;-65
2022/01/25 11:21:08;;;;;;;20.65;14.10;;;3.20;99.90;;;;;;5135991;27;20134;-65
2022/01/25 11:23:37;;;;;;;22.77;13.80;;;3.10;99.90;;;;;;5135289;27;20024;-65
2022/01/25 11:26:07;;;;;;;23.13;13.65;;;3.20;99.90;;;;;;5135846;27;20069;-65
2022/01/25 11:28:37;;;;;;;21.10;14.00;;;3.20;99.90;;;;;;5135559;27;20025;-65
2022/01/25 11:31:09;;;;;;;21.90;14.43;;;3.20;99.90;;;;;;5136023;27;20027;-67
2022/01/25 11:33:40;;;;;;;20.45;13.95;;;3.20;99.90;;;;;;5135328;27;20027;-64
2022/01/25 11:36:08;;;;;;;22.77;14.52;;;3.20;99.90;;;;;;5136042;27;20043;-64
2022/01/25 11:38:40;;;;;;;21.17;14.02;;;3.20;99.90;;;;;;5135193;27;20032;-64
2022/01/25 11:41:12;;;;;;;22.05;14.68;;;3.20;99.90;;;;;;5136156;27;20027;-65
2022/01/25 11:43:40;;;;;;;20.98;13.85;;;3.20;99.90;;;;;;5135017;27;20030;-65
2022/01/25 11:46:07;;;;;;;21.20;14.27;;;3.20;99.90;;;;;;5135499;27;20031;-65
2022/01/25 11:48:43;;;;;;;22.80;15.15;;;3.20;99.90;;;;;;5134995;27;20031;-65
2022/01/25 11:51:18;;;;;;;23.77;13.55;;;3.20;99.90;;;;;;5135819;27;20050;-65
2022/01/25 11:53:46;;;;;;;20.20;13.25;;;3.20;99.90;;;;;;5134626;27;20072;-64
2022/01/25 11:56:13;;;;;;;21.40;13.32;;;3.20;99.90;;;;;;5134557;27;20091;-64
2022/01/25 11:58:39;;;;;;;19.20;12.73;;;3.20;99.90;;;;;;5134068;27;20076;-65
2022/01/25 12:01:17;;;;;;;20.23;13.55;;;3.10;99.90;;;;;;5125064;27;20038;-65
2022/01/25 12:03:46;;;;;;;18.50;13.70;;;3.10;99.90;;;;;;5114203;28;20020;-65
2022/01/25 12:06:28;;;;;;;22.17;13.85;;;3.10;99.90;;;;;;5096288;28;20365;-65
2022/01/25 12:09:07;;;;;;;;;;;3.10;99.90;;;;;;5114906;28;20027;-66
2022/01/25 12:11:58;;;;;;;19.35;13.07;;;3.10;99.90;;;;;;5114181;28;19971;-65
2022/01/25 12:14:27;;;;;;;;;;;3.10;99.90;;;;;;5114581;28;20043;-65
2022/01/25 12:16:57;;;;;;;21.27;13.32;;;3.20;99.90;;;;;;5114527;28;20317;-65
2022/01/25 12:19:53;;;;;;;20.20;13.32;;;3.20;99.90;;;;;;5114097;28;20028;-68
2022/01/25 12:22:33;;;;;;;17.13;11.82;;;3.20;99.90;;;;;;5114500;28;20022;-66
2022/01/25 12:25:20;;;;;;;22.73;13.05;;;3.20;99.90;;;;;;5114521;28;20028;-65
2022/01/25 12:27:59;;;;;;;20.70;12.45;;;3.20;99.90;;;;;;5113827;28;20023;-65
2022/01/25 12:30:38;;;;;;;18.17;13.50;;;3.20;99.90;;;;;;5113613;28;20028;-66
2022/01/25 12:33:08;;;;;;;19.40;13.05;;;3.20;99.90;;;;;;5114219;28;20368;-64
2022/01/25 12:35:54;;;;;;;23.08;12.98;;;3.20;99.90;;;;;;5113468;28;20081;-64
2022/01/25 12:38:43;;;;;;;20.48;13.20;;;3.20;99.90;;;;;;5114057;28;20468;-64
2022/01/25 12:41:16;;;;;;;20.58;13.70;;;3.20;99.90;;;;;;5114501;28;20142;-64
2022/01/25 12:43:44;;;;;;;20.42;12.77;;;3.10;99.90;;;;;;5113359;28;20523;-64
2022/01/25 12:46:15;;;;;;;22.10;13.13;;;3.10;99.90;;;;;;5114042;28;20114;-65
2022/01/25 12:48:48;;;;;;;20.50;13.68;;;3.10;99.90;;;;;;5094839;28;20089;-66
2022/01/25 12:51:25;;;;;;;20.30;13.25;;;3.10;99.90;;;;;;5113798;28;20085;-65
2022/01/25 12:53:53;;;;;;;21.13;13.32;;;3.10;99.90;;;;;;5095350;28;20084;-64
2022/01/25 12:56:22;;;;;;;21.02;13.98;;;3.10;99.90;;;;;;5113081;28;20376;-63
2022/01/25 12:58:54;;;;;;;19.30;14.00;;;3.20;99.90;;;;;;5112818;28;20458;-65
2022/01/25 13:01:22;;;;;;;22.15;15.18;;;3.20;99.90;;;;;;5113518;28;20026;-66
2022/01/25 13:03:49;;;;;;;20.60;13.73;;;3.20;99.90;;;;;;5094626;28;20028;-65
2022/01/25 13:06:18;;;;;;;26.65;14.25;;;3.20;99.90;;;;;;5113435;28;20057;-65
2022/01/25 13:08:56;;;;;;;22.17;14.77;;;3.20;99.90;;;;;;5112716;28;20065;-64
2022/01/25 13:11:47;;;;;;;21.75;14.65;;;3.20;99.90;;;;;;5119036;27;20023;-65
2022/01/25 13:16:43;;;;;;;18.95;13.98;;;3.20;99.90;;;;;;5133083;27;20459;-64
2022/01/25 13:19:09;;;;;;;21.77;14.82;;;3.20;99.90;;;;;;5133435;27;20023;-64
2022/01/25 13:21:43;;;;;;;24.02;14.75;;;3.20;99.90;;;;;;5133190;27;20082;-65
2022/01/25 13:24:15;;;;;;;23.02;15.05;;;3.20;99.90;;;;;;5133699;27;20376;-65
2022/01/25 13:27:14;;;;;;;21.13;14.38;;;3.20;99.90;;;;;;5133093;27;20114;-65
2022/01/25 13:32:30;;;;;;;20.42;14.57;;;3.20;99.90;;;;;;5133626;27;20026;-63
2022/01/25 13:35:14;;;;;;;25.42;16.88;;;3.20;99.90;;;;;;5133602;27;20062;-63
2022/01/25 13:37:40;;;;;;;24.08;16.02;;;3.20;99.90;;;;;;5132774;27;20027;-64
2022/01/25 13:40:07;;;;;;;25.23;16.35;;;3.20;99.90;;;;;;5133046;27;20110;-65
2022/01/25 13:42:45;;;;;;;25.17;16.00;;;3.20;99.90;;;;;;5132748;27;20027;-65
2022/01/25 13:48:05;;;;;;;28.38;16.48;;;3.10;99.90;;;;;;5133048;27;20132;-64
2022/01/25 13:50:33;;;;;;;25.50;15.82;;;3.10;99.90;;;;;;5132850;27;20019;-65
2022/01/25 13:52:59;;;;;;;26.27;16.48;;;3.10;99.90;;;;;;5133201;27;20033;-63
2022/01/25 13:55:25;;;;;;;26.98;16.10;;;3.10;99.90;;;;;;5133140;27;20089;-64
2022/01/25 13:57:52;;;;;;;25.40;16.75;;;3.10;99.90;;;;;;5132256;27;20039;-65
2022/01/25 14:00:36;;;;;;;27.30;17.35;;;3.10;99.90;;;;;;5115025;27;20032;-65
2022/01/25 14:03:02;;;;;;;27.60;16.10;;;3.10;99.90;;;;;;5112661;28;20023;-65
2022/01/25 14:05:36;;;;;;;27.67;16.92;;;3.20;99.90;;;;;;5112525;28;20026;-65
2022/01/25 14:08:02;;;;;;;24.40;16.02;;;3.20;99.90;;;;;;5113069;28;20051;-64
2022/01/25 14:10:29;;;;;;;24.45;16.48;;;3.20;99.90;;;;;;5112388;28;20035;-64
2022/01/25 14:23:57;;;;;;;29.40;17.88;;;3.20;99.90;;;;;;5111912;28;20080;-65
2022/01/25 14:26:30;;;;;;;29.88;16.52;;;3.20;99.90;;;;;;5112402;28;20034;-65
2022/01/25 14:29:12;;;;;;;28.73;15.50;;;3.20;99.90;;;;;;5111936;28;20349;-65
2022/01/25 14:31:43;;;;;;;22.80;15.68;;;3.20;99.90;;;;;;5111789;28;20077;-64
2022/01/25 14:34:11;;;;;;;25.98;16.25;;;3.20;99.90;;;;;;5093891;28;20080;-64
2022/01/25 14:36:43;;;;;;;28.52;16.73;;;3.20;99.90;;;;;;5111291;28;20119;-65
2022/01/25 14:39:09;;;;;;;24.48;15.93;;;3.20;99.90;;;;;;5112327;28;20076;-66
2022/01/25 14:41:37;;;;;;;23.38;14.93;;;3.20;99.90;;;;;;5111592;28;20421;-65
2022/01/25 14:44:24;;;;;;;23.88;15.68;;;3.20;99.90;;;;;;5112130;28;20020;-65
2022/01/25 14:46:53;;;;;;;23.88;16.77;;;3.20;99.90;;;;;;5111602;28;20024;-65
2022/01/25 14:49:27;;;;;;;26.00;16.60;;;3.10;99.90;;;;;;5112126;28;20086;-64
2022/01/25 14:51:59;;;;;;;27.25;16.58;;;3.20;99.90;;;;;;5111419;28;20023;-66
2022/01/25 14:54:32;;;;;;;26.85;15.63;;;3.20;99.90;;;;;;5111823;28;20035;-65
2022/01/25 14:57:04;;;;;;;28.38;17.38;;;3.20;99.90;;;;;;5092898;28;20061;-64
2022/01/25 14:59:34;;;;;;;26.95;16.98;;;3.10;99.90;;;;;;5112059;28;20035;-64
2022/01/25 15:02:08;;;;;;;25.77;16.48;;;3.20;99.90;;;;;;5111562;28;20027;-65
2022/01/25 15:04:43;;;;;;;31.63;16.83;;;3.20;99.90;;;;;;5127226;28;20023;-64
2022/01/25 15:07:09;;;;;;;26.50;15.60;;;3.20;99.90;;;;;;5132559;28;20383;-65
2022/01/25 15:09:35;;;;;;;28.65;17.38;;;3.10;99.90;;;;;;5132139;28;20028;-65
2022/01/25 15:12:01;;;;;;;28.75;18.10;;;3.10;99.90;;;;;;5132246;28;20407;-65
2022/01/25 15:14:36;;;;;;;30.48;19.02;;;3.10;99.90;;;;;;5132263;28;20486;-64
2022/01/25 15:17:03;;;;;;;32.60;20.25;;;3.10;99.90;;;;;;5132175;28;20031;-65